sensor_id;sensor_type;location;lat;lon;timestamp;P1;durP1;ratioP1;P2;durP2;ratioP2
49472;SDS011;67434;50.956;6.918;2023-02-16T00:01:47;25.38;;;12.90;;
49472;SDS011;67434;50.956;6.918;2023-02-16T00:04:33;28.50;;;13.82;;
49472;SDS011;67434;50.956;6.918;2023-02-16T00:09:23;25.42;;;13.35;;
49472;SDS011;67434;50.956;6.918;2023-02-16T00:11:49;27.38;;;13.02;;
49472;SDS011;67434;50.956;6.918;2023-02-16T00:14:35;27.98;;;14.57;;
49472;SDS011;67434;50.956;6.918;2023-02-16T00:17:02;27.52;;;12.93;;
49472;SDS011;67434;50.956;6.918;2023-02-16T00:22:05;30.52;;;14.38;;
49472;SDS011;67434;50.956;6.918;2023-02-16T00:24:31;27.77;;;12.98;;
49472;SDS011;67434;50.956;6.918;2023-02-16T00:26:57;25.40;;;13.25;;
49472;SDS011;67434;50.956;6.918;2023-02-16T00:31:49;28.10;;;13.65;;
49472;SDS011;67434;50.956;6.918;2023-02-16T00:36:44;28.13;;;13.98;;
49472;SDS011;67434;50.956;6.918;2023-02-16T00:39:10;27.70;;;14.30;;
49472;SDS011;67434;50.956;6.918;2023-02-16T00:41:35;29.80;;;12.90;;
49472;SDS011;67434;50.956;6.918;2023-02-16T00:44:25;25.33;;;12.88;;
49472;SDS011;67434;50.956;6.918;2023-02-16T00:46:55;25.88;;;14.18;;
49472;SDS011;67434;50.956;6.918;2023-02-16T00:49:20;30.55;;;13.50;;
49472;SDS011;67434;50.956;6.918;2023-02-16T00:51:46;33.30;;;13.65;;
49472;SDS011;67434;50.956;6.918;2023-02-16T00:54:13;28.52;;;13.48;;
49472;SDS011;67434;50.956;6.918;2023-02-16T00:56:38;25.45;;;12.32;;
49472;SDS011;67434;50.956;6.918;2023-02-16T00:59:06;27.73;;;12.80;;
49472;SDS011;67434;50.956;6.918;2023-02-16T01:01:38;30.15;;;14.77;;
49472;SDS011;67434;50.956;6.918;2023-02-16T01:04:05;31.10;;;13.48;;
49472;SDS011;67434;50.956;6.918;2023-02-16T01:06:33;26.83;;;13.13;;
49472;SDS011;67434;50.956;6.918;2023-02-16T01:09:18;31.35;;;14.52;;
49472;SDS011;67434;50.956;6.918;2023-02-16T01:12:04;33.28;;;14.25;;
49472;SDS011;67434;50.956;6.918;2023-02-16T01:14:36;30.27;;;13.60;;
49472;SDS011;67434;50.956;6.918;2023-02-16T01:17:02;31.63;;;13.77;;
49472;SDS011;67434;50.956;6.918;2023-02-16T01:19:27;27.13;;;14.02;;
49472;SDS011;67434;50.956;6.918;2023-02-16T01:21:53;30.27;;;13.43;;
49472;SDS011;67434;50.956;6.918;2023-02-16T01:24:18;27.65;;;13.80;;
49472;SDS011;67434;50.956;6.918;2023-02-16T01:26:45;27.65;;;14.02;;
49472;SDS011;67434;50.956;6.918;2023-02-16T01:29:14;29.00;;;14.45;;
49472;SDS011;67434;50.956;6.918;2023-02-16T01:31:41;29.38;;;14.05;;
49472;SDS011;67434;50.956;6.918;2023-02-16T01:34:07;27.33;;;13.48;;
49472;SDS011;67434;50.956;6.918;2023-02-16T01:36:33;31.70;;;14.35;;
49472;SDS011;67434;50.956;6.918;2023-02-16T01:39:01;32.55;;;14.95;;
49472;SDS011;67434;50.956;6.918;2023-02-16T01:44:26;30.50;;;13.20;;
49472;SDS011;67434;50.956;6.918;2023-02-16T01:49:29;32.10;;;15.10;;
49472;SDS011;67434;50.956;6.918;2023-02-16T01:51:56;27.70;;;14.52;;
49472;SDS011;67434;50.956;6.918;2023-02-16T02:02:26;30.42;;;13.75;;
49472;SDS011;67434;50.956;6.918;2023-02-16T02:05:01;31.25;;;13.85;;
49472;SDS011;67434;50.956;6.918;2023-02-16T02:08:00;30.58;;;14.70;;
49472;SDS011;67434;50.956;6.918;2023-02-16T02:13:31;29.88;;;14.40;;
49472;SDS011;67434;50.956;6.918;2023-02-16T02:16:09;26.83;;;12.88;;
49472;SDS011;67434;50.956;6.918;2023-02-16T02:18:35;29.08;;;15.43;;
49472;SDS011;67434;50.956;6.918;2023-02-16T02:21:17;29.27;;;13.55;;
49472;SDS011;67434;50.956;6.918;2023-02-16T02:27:23;34.95;;;14.63;;
49472;SDS011;67434;50.956;6.918;2023-02-16T02:30:07;31.83;;;14.23;;
49472;SDS011;67434;50.956;6.918;2023-02-16T02:32:49;29.27;;;14.20;;
49472;SDS011;67434;50.956;6.918;2023-02-16T02:43:35;33.00;;;14.50;;
49472;SDS011;67434;50.956;6.918;2023-02-16T02:46:22;29.75;;;14.05;;
49472;SDS011;67434;50.956;6.918;2023-02-16T02:48:52;35.47;;;14.73;;
49472;SDS011;67434;50.956;6.918;2023-02-16T02:51:17;27.33;;;14.48;;
49472;SDS011;67434;50.956;6.918;2023-02-16T02:59:52;30.48;;;15.00;;
49472;SDS011;67434;50.956;6.918;2023-02-16T03:02:49;30.35;;;13.93;;
49472;SDS011;67434;50.956;6.918;2023-02-16T03:05:16;28.38;;;13.50;;
49472;SDS011;67434;50.956;6.918;2023-02-16T03:07:44;29.40;;;15.35;;
49472;SDS011;67434;50.956;6.918;2023-02-16T03:10:17;31.25;;;15.52;;
49472;SDS011;67434;50.956;6.918;2023-02-16T03:13:05;29.02;;;14.52;;
49472;SDS011;67434;50.956;6.918;2023-02-16T03:15:35;30.77;;;14.65;;
49472;SDS011;67434;50.956;6.918;2023-02-16T03:18:04;31.55;;;15.38;;
49472;SDS011;67434;50.956;6.918;2023-02-16T03:20:51;34.97;;;15.52;;
49472;SDS011;67434;50.956;6.918;2023-02-16T03:23:35;33.50;;;13.88;;
49472;SDS011;67434;50.956;6.918;2023-02-16T03:26:23;29.95;;;14.30;;
49472;SDS011;67434;50.956;6.918;2023-02-16T03:29:09;31.83;;;14.77;;
49472;SDS011;67434;50.956;6.918;2023-02-16T03:31:47;34.50;;;15.90;;
49472;SDS011;67434;50.956;6.918;2023-02-16T03:34:14;33.35;;;15.35;;
49472;SDS011;67434;50.956;6.918;2023-02-16T03:36:41;27.75;;;13.93;;
49472;SDS011;67434;50.956;6.918;2023-02-16T03:39:10;33.97;;;16.05;;
49472;SDS011;67434;50.956;6.918;2023-02-16T03:41:44;29.50;;;14.07;;
49472;SDS011;67434;50.956;6.918;2023-02-16T03:44:13;31.55;;;15.68;;
49472;SDS011;67434;50.956;6.918;2023-02-16T03:46:39;31.80;;;14.63;;
49472;SDS011;67434;50.956;6.918;2023-02-16T03:49:04;33.03;;;14.02;;
49472;SDS011;67434;50.956;6.918;2023-02-16T03:51:31;31.05;;;14.02;;
49472;SDS011;67434;50.956;6.918;2023-02-16T03:53:56;37.53;;;16.55;;
49472;SDS011;67434;50.956;6.918;2023-02-16T03:56:21;33.25;;;14.98;;
49472;SDS011;67434;50.956;6.918;2023-02-16T03:58:47;31.23;;;15.05;;
49472;SDS011;67434;50.956;6.918;2023-02-16T04:01:12;29.20;;;14.35;;
49472;SDS011;67434;50.956;6.918;2023-02-16T04:03:39;34.35;;;14.98;;
49472;SDS011;67434;50.956;6.918;2023-02-16T04:06:04;35.55;;;15.60;;
49472;SDS011;67434;50.956;6.918;2023-02-16T04:08:30;31.88;;;15.55;;
49472;SDS011;67434;50.956;6.918;2023-02-16T04:10:55;33.13;;;14.43;;
49472;SDS011;67434;50.956;6.918;2023-02-16T04:13:21;34.72;;;16.13;;
49472;SDS011;67434;50.956;6.918;2023-02-16T04:15:48;31.60;;;14.25;;
49472;SDS011;67434;50.956;6.918;2023-02-16T04:18:13;29.90;;;14.02;;
49472;SDS011;67434;50.956;6.918;2023-02-16T04:20:39;33.17;;;15.32;;
49472;SDS011;67434;50.956;6.918;2023-02-16T04:23:04;34.53;;;14.23;;
49472;SDS011;67434;50.956;6.918;2023-02-16T04:25:30;31.80;;;15.27;;
49472;SDS011;67434;50.956;6.918;2023-02-16T04:27:56;27.90;;;13.93;;
49472;SDS011;67434;50.956;6.918;2023-02-16T04:30:22;34.58;;;16.42;;
49472;SDS011;67434;50.956;6.918;2023-02-16T04:32:52;32.42;;;15.80;;
49472;SDS011;67434;50.956;6.918;2023-02-16T04:35:18;31.98;;;16.25;;
49472;SDS011;67434;50.956;6.918;2023-02-16T04:37:44;32.90;;;14.75;;
49472;SDS011;67434;50.956;6.918;2023-02-16T04:40:10;34.80;;;15.82;;
49472;SDS011;67434;50.956;6.918;2023-02-16T04:42:39;32.20;;;14.10;;
49472;SDS011;67434;50.956;6.918;2023-02-16T04:45:05;36.88;;;14.82;;
49472;SDS011;67434;50.956;6.918;2023-02-16T04:47:33;31.35;;;15.07;;
49472;SDS011;67434;50.956;6.918;2023-02-16T04:49:58;27.20;;;13.65;;
49472;SDS011;67434;50.956;6.918;2023-02-16T04:52:23;36.42;;;16.13;;
49472;SDS011;67434;50.956;6.918;2023-02-16T04:54:49;33.67;;;15.55;;
49472;SDS011;67434;50.956;6.918;2023-02-16T04:57:14;32.22;;;14.80;;
49472;SDS011;67434;50.956;6.918;2023-02-16T04:59:40;30.23;;;14.40;;
49472;SDS011;67434;50.956;6.918;2023-02-16T05:02:06;30.55;;;15.07;;
49472;SDS011;67434;50.956;6.918;2023-02-16T05:04:34;30.60;;;14.80;;
49472;SDS011;67434;50.956;6.918;2023-02-16T05:07:00;37.20;;;15.50;;
49472;SDS011;67434;50.956;6.918;2023-02-16T05:09:25;35.40;;;15.82;;
49472;SDS011;67434;50.956;6.918;2023-02-16T05:11:50;28.77;;;13.80;;
49472;SDS011;67434;50.956;6.918;2023-02-16T05:14:34;31.88;;;15.15;;
49472;SDS011;67434;50.956;6.918;2023-02-16T05:17:06;34.25;;;13.65;;
49472;SDS011;67434;50.956;6.918;2023-02-16T05:19:32;30.30;;;14.98;;
49472;SDS011;67434;50.956;6.918;2023-02-16T05:21:57;32.90;;;14.30;;
49472;SDS011;67434;50.956;6.918;2023-02-16T05:24:23;30.00;;;12.75;;
49472;SDS011;67434;50.956;6.918;2023-02-16T05:26:48;32.20;;;14.32;;
49472;SDS011;67434;50.956;6.918;2023-02-16T05:29:14;31.05;;;13.50;;
49472;SDS011;67434;50.956;6.918;2023-02-16T05:31:39;29.38;;;14.63;;
49472;SDS011;67434;50.956;6.918;2023-02-16T05:34:05;31.58;;;14.82;;
49472;SDS011;67434;50.956;6.918;2023-02-16T05:36:30;34.55;;;14.60;;
49472;SDS011;67434;50.956;6.918;2023-02-16T05:38:56;33.88;;;15.00;;
49472;SDS011;67434;50.956;6.918;2023-02-16T05:41:21;31.15;;;14.30;;
49472;SDS011;67434;50.956;6.918;2023-02-16T05:43:53;31.00;;;14.73;;
49472;SDS011;67434;50.956;6.918;2023-02-16T05:46:21;31.27;;;14.60;;
49472;SDS011;67434;50.956;6.918;2023-02-16T05:48:48;34.33;;;15.10;;
49472;SDS011;67434;50.956;6.918;2023-02-16T05:51:13;29.88;;;14.88;;
49472;SDS011;67434;50.956;6.918;2023-02-16T05:53:39;33.28;;;15.75;;
49472;SDS011;67434;50.956;6.918;2023-02-16T05:56:04;31.17;;;14.77;;
49472;SDS011;67434;50.956;6.918;2023-02-16T05:58:30;33.70;;;15.32;;
49472;SDS011;67434;50.956;6.918;2023-02-16T06:00:55;34.47;;;15.07;;
49472;SDS011;67434;50.956;6.918;2023-02-16T06:03:22;34.90;;;16.88;;
49472;SDS011;67434;50.956;6.918;2023-02-16T06:05:52;34.15;;;15.13;;
49472;SDS011;67434;50.956;6.918;2023-02-16T06:08:18;32.78;;;15.38;;
49472;SDS011;67434;50.956;6.918;2023-02-16T06:10:43;35.20;;;14.93;;
49472;SDS011;67434;50.956;6.918;2023-02-16T06:13:08;35.20;;;15.18;;
49472;SDS011;67434;50.956;6.918;2023-02-16T06:15:34;28.42;;;13.70;;
49472;SDS011;67434;50.956;6.918;2023-02-16T06:17:59;28.55;;;14.75;;
49472;SDS011;67434;50.956;6.918;2023-02-16T06:20:25;32.08;;;15.07;;
49472;SDS011;67434;50.956;6.918;2023-02-16T06:22:50;30.65;;;14.77;;
49472;SDS011;67434;50.956;6.918;2023-02-16T06:25:15;34.63;;;15.15;;
49472;SDS011;67434;50.956;6.918;2023-02-16T06:27:43;34.85;;;14.73;;
49472;SDS011;67434;50.956;6.918;2023-02-16T06:30:08;33.53;;;15.27;;
49472;SDS011;67434;50.956;6.918;2023-02-16T06:32:33;34.55;;;15.48;;
49472;SDS011;67434;50.956;6.918;2023-02-16T06:34:59;27.70;;;13.63;;
49472;SDS011;67434;50.956;6.918;2023-02-16T06:37:24;30.00;;;14.15;;
49472;SDS011;67434;50.956;6.918;2023-02-16T06:39:49;35.60;;;15.07;;
49472;SDS011;67434;50.956;6.918;2023-02-16T06:42:15;34.17;;;15.13;;
49472;SDS011;67434;50.956;6.918;2023-02-16T06:44:40;33.28;;;15.63;;
49472;SDS011;67434;50.956;6.918;2023-02-16T06:47:08;35.05;;;15.73;;
49472;SDS011;67434;50.956;6.918;2023-02-16T06:49:33;31.10;;;14.20;;
49472;SDS011;67434;50.956;6.918;2023-02-16T06:51:59;32.10;;;15.00;;
49472;SDS011;67434;50.956;6.918;2023-02-16T06:54:24;29.55;;;13.65;;
49472;SDS011;67434;50.956;6.918;2023-02-16T06:56:50;30.75;;;13.75;;
49472;SDS011;67434;50.956;6.918;2023-02-16T06:59:15;32.42;;;15.35;;
49472;SDS011;67434;50.956;6.918;2023-02-16T07:01:40;30.63;;;14.32;;
49472;SDS011;67434;50.956;6.918;2023-02-16T07:04:06;32.10;;;14.82;;
49472;SDS011;67434;50.956;6.918;2023-02-16T07:06:32;38.00;;;14.85;;
49472;SDS011;67434;50.956;6.918;2023-02-16T07:09:01;33.25;;;14.57;;
49472;SDS011;67434;50.956;6.918;2023-02-16T07:11:27;31.45;;;14.73;;
49472;SDS011;67434;50.956;6.918;2023-02-16T07:13:53;30.20;;;14.63;;
49472;SDS011;67434;50.956;6.918;2023-02-16T07:16:19;31.25;;;15.13;;
49472;SDS011;67434;50.956;6.918;2023-02-16T07:18:44;29.42;;;14.30;;
49472;SDS011;67434;50.956;6.918;2023-02-16T07:21:10;30.23;;;13.93;;
49472;SDS011;67434;50.956;6.918;2023-02-16T07:23:36;37.53;;;14.63;;
49472;SDS011;67434;50.956;6.918;2023-02-16T07:26:01;31.20;;;13.70;;
49472;SDS011;67434;50.956;6.918;2023-02-16T07:28:27;29.95;;;14.27;;
49472;SDS011;67434;50.956;6.918;2023-02-16T07:30:52;28.73;;;15.00;;
49472;SDS011;67434;50.956;6.918;2023-02-16T07:33:17;31.88;;;14.30;;
49472;SDS011;67434;50.956;6.918;2023-02-16T07:35:43;27.92;;;13.50;;
49472;SDS011;67434;50.956;6.918;2023-02-16T07:38:09;33.97;;;15.82;;
49472;SDS011;67434;50.956;6.918;2023-02-16T07:40:35;31.00;;;13.60;;
49472;SDS011;67434;50.956;6.918;2023-02-16T07:43:01;32.20;;;15.68;;
49472;SDS011;67434;50.956;6.918;2023-02-16T07:45:28;28.13;;;15.80;;
49472;SDS011;67434;50.956;6.918;2023-02-16T07:47:56;27.67;;;14.25;;
49472;SDS011;67434;50.956;6.918;2023-02-16T07:50:22;32.53;;;15.07;;
49472;SDS011;67434;50.956;6.918;2023-02-16T07:52:47;32.83;;;15.25;;
49472;SDS011;67434;50.956;6.918;2023-02-16T07:55:12;27.75;;;14.88;;
49472;SDS011;67434;50.956;6.918;2023-02-16T07:57:38;33.05;;;15.82;;
49472;SDS011;67434;50.956;6.918;2023-02-16T08:00:04;32.95;;;16.35;;
49472;SDS011;67434;50.956;6.918;2023-02-16T08:02:33;32.28;;;14.68;;
49472;SDS011;67434;50.956;6.918;2023-02-16T08:04:58;33.85;;;14.52;;
49472;SDS011;67434;50.956;6.918;2023-02-16T08:07:24;28.70;;;14.63;;
49472;SDS011;67434;50.956;6.918;2023-02-16T08:09:50;28.55;;;14.85;;
49472;SDS011;67434;50.956;6.918;2023-02-16T08:12:15;32.45;;;15.57;;
49472;SDS011;67434;50.956;6.918;2023-02-16T08:14:42;31.92;;;15.50;;
49472;SDS011;67434;50.956;6.918;2023-02-16T08:17:07;39.03;;;18.48;;
49472;SDS011;67434;50.956;6.918;2023-02-16T08:19:33;33.17;;;15.52;;
49472;SDS011;67434;50.956;6.918;2023-02-16T08:21:59;31.45;;;15.25;;
49472;SDS011;67434;50.956;6.918;2023-02-16T08:24:26;33.80;;;16.75;;
49472;SDS011;67434;50.956;6.918;2023-02-16T08:26:52;30.85;;;15.07;;
49472;SDS011;67434;50.956;6.918;2023-02-16T08:29:20;31.45;;;14.95;;
49472;SDS011;67434;50.956;6.918;2023-02-16T08:31:47;33.03;;;15.48;;
49472;SDS011;67434;50.956;6.918;2023-02-16T08:34:14;30.98;;;15.27;;
49472;SDS011;67434;50.956;6.918;2023-02-16T08:36:41;29.05;;;14.85;;
49472;SDS011;67434;50.956;6.918;2023-02-16T08:39:13;31.77;;;14.90;;
49472;SDS011;67434;50.956;6.918;2023-02-16T08:41:40;30.90;;;14.80;;
49472;SDS011;67434;50.956;6.918;2023-02-16T08:44:08;32.60;;;15.77;;
49472;SDS011;67434;50.956;6.918;2023-02-16T08:46:34;29.83;;;15.77;;
49472;SDS011;67434;50.956;6.918;2023-02-16T08:49:01;32.97;;;14.85;;
49472;SDS011;67434;50.956;6.918;2023-02-16T08:51:28;31.30;;;15.82;;
49472;SDS011;67434;50.956;6.918;2023-02-16T08:53:56;34.92;;;16.02;;
49472;SDS011;67434;50.956;6.918;2023-02-16T08:56:24;31.85;;;15.43;;
49472;SDS011;67434;50.956;6.918;2023-02-16T08:58:50;28.67;;;15.85;;
49472;SDS011;67434;50.956;6.918;2023-02-16T09:01:16;40.95;;;15.80;;
49472;SDS011;67434;50.956;6.918;2023-02-16T09:03:42;38.35;;;16.80;;
49472;SDS011;67434;50.956;6.918;2023-02-16T09:06:09;30.67;;;14.98;;
49472;SDS011;67434;50.956;6.918;2023-02-16T09:08:36;33.97;;;15.32;;
49472;SDS011;67434;50.956;6.918;2023-02-16T09:11:02;35.33;;;16.17;;
49472;SDS011;67434;50.956;6.918;2023-02-16T09:13:35;33.30;;;15.95;;
49472;SDS011;67434;50.956;6.918;2023-02-16T09:16:05;37.50;;;17.10;;
49472;SDS011;67434;50.956;6.918;2023-02-16T09:18:42;34.60;;;16.30;;
49472;SDS011;67434;50.956;6.918;2023-02-16T09:21:13;31.58;;;15.93;;
49472;SDS011;67434;50.956;6.918;2023-02-16T09:23:41;33.58;;;16.55;;
49472;SDS011;67434;50.956;6.918;2023-02-16T09:26:08;33.08;;;16.02;;
49472;SDS011;67434;50.956;6.918;2023-02-16T09:28:38;30.15;;;15.57;;
49472;SDS011;67434;50.956;6.918;2023-02-16T09:31:08;36.38;;;17.35;;
49472;SDS011;67434;50.956;6.918;2023-02-16T09:33:38;31.95;;;17.40;;
49472;SDS011;67434;50.956;6.918;2023-02-16T09:36:05;34.78;;;16.20;;
49472;SDS011;67434;50.956;6.918;2023-02-16T09:38:32;31.17;;;16.08;;
49472;SDS011;67434;50.956;6.918;2023-02-16T09:40:58;36.85;;;18.02;;
49472;SDS011;67434;50.956;6.918;2023-02-16T09:46:10;31.38;;;15.45;;
49472;SDS011;67434;50.956;6.918;2023-02-16T09:48:39;35.47;;;16.80;;
49472;SDS011;67434;50.956;6.918;2023-02-16T09:51:09;34.80;;;17.05;;
49472;SDS011;67434;50.956;6.918;2023-02-16T09:53:49;33.20;;;14.95;;
49472;SDS011;67434;50.956;6.918;2023-02-16T09:56:24;30.73;;;15.82;;
49472;SDS011;67434;50.956;6.918;2023-02-16T10:01:38;30.75;;;16.58;;
49472;SDS011;67434;50.956;6.918;2023-02-16T10:07:27;29.80;;;15.63;;
49472;SDS011;67434;50.956;6.918;2023-02-16T10:10:01;30.88;;;16.80;;
49472;SDS011;67434;50.956;6.918;2023-02-16T10:12:39;28.88;;;14.82;;
49472;SDS011;67434;50.956;6.918;2023-02-16T10:15:15;29.58;;;15.52;;
49472;SDS011;67434;50.956;6.918;2023-02-16T10:17:47;36.97;;;18.30;;
49472;SDS011;67434;50.956;6.918;2023-02-16T10:20:34;29.10;;;16.75;;
49472;SDS011;67434;50.956;6.918;2023-02-16T10:23:10;31.02;;;16.77;;
49472;SDS011;67434;50.956;6.918;2023-02-16T10:39:52;30.10;;;17.02;;
49472;SDS011;67434;50.956;6.918;2023-02-16T10:47:40;30.48;;;15.88;;
49472;SDS011;67434;50.956;6.918;2023-02-16T10:50:14;28.27;;;16.77;;
49472;SDS011;67434;50.956;6.918;2023-02-16T10:52:45;30.17;;;16.73;;
49472;SDS011;67434;50.956;6.918;2023-02-16T10:55:11;32.00;;;16.98;;
49472;SDS011;67434;50.956;6.918;2023-02-16T10:57:37;30.92;;;16.20;;
49472;SDS011;67434;50.956;6.918;2023-02-16T11:00:11;30.58;;;16.13;;
49472;SDS011;67434;50.956;6.918;2023-02-16T11:02:44;30.95;;;17.00;;
49472;SDS011;67434;50.956;6.918;2023-02-16T11:07:55;27.67;;;16.63;;
49472;SDS011;67434;50.956;6.918;2023-02-16T11:10:39;31.85;;;17.67;;
49472;SDS011;67434;50.956;6.918;2023-02-16T11:15:49;28.48;;;17.60;;
49472;SDS011;67434;50.956;6.918;2023-02-16T11:19:02;28.95;;;16.67;;
49472;SDS011;67434;50.956;6.918;2023-02-16T11:21:09;28.73;;;15.93;;
49472;SDS011;67434;50.956;6.918;2023-02-16T11:23:40;30.02;;;16.83;;
49472;SDS011;67434;50.956;6.918;2023-02-16T11:31:10;28.58;;;16.40;;
49472;SDS011;67434;50.956;6.918;2023-02-16T11:33:39;29.23;;;16.10;;
49472;SDS011;67434;50.956;6.918;2023-02-16T11:36:19;29.48;;;15.82;;
49472;SDS011;67434;50.956;6.918;2023-02-16T11:41:29;29.85;;;16.75;;
49472;SDS011;67434;50.956;6.918;2023-02-16T11:43:57;31.92;;;17.25;;
49472;SDS011;67434;50.956;6.918;2023-02-16T11:46:23;29.50;;;16.92;;
49472;SDS011;67434;50.956;6.918;2023-02-16T11:48:49;26.13;;;15.48;;
49472;SDS011;67434;50.956;6.918;2023-02-16T11:51:30;29.58;;;15.75;;
49472;SDS011;67434;50.956;6.918;2023-02-16T11:53:58;31.25;;;16.48;;
49472;SDS011;67434;50.956;6.918;2023-02-16T11:56:27;29.15;;;17.48;;
49472;SDS011;67434;50.956;6.918;2023-02-16T12:05:03;29.93;;;17.80;;
49472;SDS011;67434;50.956;6.918;2023-02-16T12:07:39;30.58;;;16.58;;
49472;SDS011;67434;50.956;6.918;2023-02-16T12:10:11;31.88;;;17.15;;
49472;SDS011;67434;50.956;6.918;2023-02-16T12:15:53;29.98;;;15.93;;
49472;SDS011;67434;50.956;6.918;2023-02-16T12:18:42;33.42;;;16.52;;
49472;SDS011;67434;50.956;6.918;2023-02-16T12:24:11;27.38;;;16.00;;
49472;SDS011;67434;50.956;6.918;2023-02-16T12:27:08;29.52;;;16.95;;
49472;SDS011;67434;50.956;6.918;2023-02-16T12:30:02;34.42;;;17.80;;
49472;SDS011;67434;50.956;6.918;2023-02-16T12:37:58;27.23;;;17.08;;
49472;SDS011;67434;50.956;6.918;2023-02-16T12:43:29;29.90;;;16.73;;
49472;SDS011;67434;50.956;6.918;2023-02-16T12:51:21;27.77;;;15.55;;
49472;SDS011;67434;50.956;6.918;2023-02-16T12:56:38;30.63;;;16.48;;
49472;SDS011;67434;50.956;6.918;2023-02-16T13:02:02;32.35;;;17.13;;
49472;SDS011;67434;50.956;6.918;2023-02-16T13:07:36;27.08;;;17.63;;
49472;SDS011;67434;50.956;6.918;2023-02-16T13:13:14;31.17;;;17.05;;
49472;SDS011;67434;50.956;6.918;2023-02-16T13:18:48;32.38;;;18.05;;
49472;SDS011;67434;50.956;6.918;2023-02-16T13:24:17;32.30;;;17.48;;
49472;SDS011;67434;50.956;6.918;2023-02-16T13:26:59;31.00;;;16.73;;
49472;SDS011;67434;50.956;6.918;2023-02-16T13:32:44;32.00;;;17.05;;
49472;SDS011;67434;50.956;6.918;2023-02-16T13:38:15;31.25;;;17.15;;
49472;SDS011;67434;50.956;6.918;2023-02-16T13:44:06;24.70;;;15.10;;
49472;SDS011;67434;50.956;6.918;2023-02-16T13:46:37;27.48;;;16.08;;
49472;SDS011;67434;50.956;6.918;2023-02-16T13:49:25;28.75;;;16.08;;
49472;SDS011;67434;50.956;6.918;2023-02-16T13:51:51;23.85;;;14.88;;
49472;SDS011;67434;50.956;6.918;2023-02-16T13:57:14;29.05;;;15.02;;
49472;SDS011;67434;50.956;6.918;2023-02-16T14:05:44;27.88;;;15.68;;
49472;SDS011;67434;50.956;6.918;2023-02-16T14:08:22;24.40;;;15.43;;
49472;SDS011;67434;50.956;6.918;2023-02-16T14:13:19;32.47;;;16.65;;
49472;SDS011;67434;50.956;6.918;2023-02-16T14:15:50;27.95;;;15.32;;
49472;SDS011;67434;50.956;6.918;2023-02-16T14:18:31;28.10;;;15.80;;
49472;SDS011;67434;50.956;6.918;2023-02-16T14:21:41;29.52;;;14.68;;
49472;SDS011;67434;50.956;6.918;2023-02-16T14:24:22;22.25;;;13.63;;
49472;SDS011;67434;50.956;6.918;2023-02-16T14:27:02;27.90;;;14.50;;
49472;SDS011;67434;50.956;6.918;2023-02-16T14:29:39;24.58;;;13.65;;
49472;SDS011;67434;50.956;6.918;2023-02-16T14:34:57;23.98;;;14.23;;
49472;SDS011;67434;50.956;6.918;2023-02-16T14:37:40;23.90;;;14.23;;
49472;SDS011;67434;50.956;6.918;2023-02-16T14:40:16;25.08;;;13.82;;
49472;SDS011;67434;50.956;6.918;2023-02-16T14:42:48;25.48;;;14.00;;
49472;SDS011;67434;50.956;6.918;2023-02-16T14:57:17;24.55;;;14.73;;
49472;SDS011;67434;50.956;6.918;2023-02-16T15:00:48;21.95;;;13.13;;
49472;SDS011;67434;50.956;6.918;2023-02-16T15:03:18;26.00;;;14.27;;
49472;SDS011;67434;50.956;6.918;2023-02-16T15:08:22;24.85;;;14.85;;
49472;SDS011;67434;50.956;6.918;2023-02-16T15:11:00;23.77;;;13.18;;
49472;SDS011;67434;50.956;6.918;2023-02-16T15:13:37;21.50;;;13.70;;
49472;SDS011;67434;50.956;6.918;2023-02-16T15:16:03;20.95;;;13.50;;
49472;SDS011;67434;50.956;6.918;2023-02-16T15:18:35;22.38;;;14.75;;
49472;SDS011;67434;50.956;6.918;2023-02-16T15:21:19;25.50;;;14.07;;
49472;SDS011;67434;50.956;6.918;2023-02-16T15:23:50;21.33;;;14.10;;
49472;SDS011;67434;50.956;6.918;2023-02-16T15:26:19;23.50;;;14.55;;
49472;SDS011;67434;50.956;6.918;2023-02-16T15:28:56;25.63;;;14.43;;
49472;SDS011;67434;50.956;6.918;2023-02-16T15:31:27;26.05;;;14.85;;
49472;SDS011;67434;50.956;6.918;2023-02-16T15:33:57;30.23;;;14.75;;
49472;SDS011;67434;50.956;6.918;2023-02-16T15:36:41;25.30;;;15.50;;
49472;SDS011;67434;50.956;6.918;2023-02-16T15:39:15;25.50;;;14.95;;
49472;SDS011;67434;50.956;6.918;2023-02-16T15:41:50;27.23;;;14.27;;
49472;SDS011;67434;50.956;6.918;2023-02-16T15:44:33;26.20;;;15.13;;
49472;SDS011;67434;50.956;6.918;2023-02-16T15:47:07;27.88;;;14.77;;
49472;SDS011;67434;50.956;6.918;2023-02-16T15:49:41;22.15;;;14.35;;
49472;SDS011;67434;50.956;6.918;2023-02-16T15:52:12;31.65;;;14.27;;
49472;SDS011;67434;50.956;6.918;2023-02-16T15:54:42;22.70;;;14.65;;
49472;SDS011;67434;50.956;6.918;2023-02-16T15:57:17;30.23;;;16.33;;
49472;SDS011;67434;50.956;6.918;2023-02-16T15:59:53;23.17;;;15.18;;
49472;SDS011;67434;50.956;6.918;2023-02-16T16:02:34;22.15;;;14.68;;
49472;SDS011;67434;50.956;6.918;2023-02-16T16:05:04;26.02;;;14.95;;
49472;SDS011;67434;50.956;6.918;2023-02-16T16:07:34;26.45;;;15.38;;
49472;SDS011;67434;50.956;6.918;2023-02-16T16:10:12;24.85;;;15.15;;
49472;SDS011;67434;50.956;6.918;2023-02-16T16:12:49;23.77;;;14.60;;
49472;SDS011;67434;50.956;6.918;2023-02-16T16:15:19;25.17;;;13.90;;
49472;SDS011;67434;50.956;6.918;2023-02-16T16:17:47;23.38;;;14.27;;
49472;SDS011;67434;50.956;6.918;2023-02-16T16:20:35;21.60;;;13.05;;
49472;SDS011;67434;50.956;6.918;2023-02-16T16:23:03;27.65;;;15.50;;
49472;SDS011;67434;50.956;6.918;2023-02-16T16:25:36;30.60;;;15.75;;
49472;SDS011;67434;50.956;6.918;2023-02-16T16:28:05;25.45;;;15.05;;
49472;SDS011;67434;50.956;6.918;2023-02-16T16:30:34;26.48;;;15.00;;
49472;SDS011;67434;50.956;6.918;2023-02-16T16:33:03;21.48;;;14.05;;
49472;SDS011;67434;50.956;6.918;2023-02-16T16:38:06;26.23;;;14.07;;
49472;SDS011;67434;50.956;6.918;2023-02-16T16:40:44;23.77;;;13.93;;
49472;SDS011;67434;50.956;6.918;2023-02-16T16:43:16;23.33;;;13.88;;
49472;SDS011;67434;50.956;6.918;2023-02-16T16:50:35;27.48;;;14.07;;
49472;SDS011;67434;50.956;6.918;2023-02-16T16:53:02;24.77;;;15.23;;
49472;SDS011;67434;50.956;6.918;2023-02-16T16:55:53;22.42;;;12.45;;
49472;SDS011;67434;50.956;6.918;2023-02-16T16:58:18;20.10;;;13.07;;
49472;SDS011;67434;50.956;6.918;2023-02-16T17:00:43;27.38;;;13.55;;
49472;SDS011;67434;50.956;6.918;2023-02-16T17:03:13;22.70;;;12.77;;
49472;SDS011;67434;50.956;6.918;2023-02-16T17:05:40;28.15;;;12.38;;
49472;SDS011;67434;50.956;6.918;2023-02-16T17:08:08;19.40;;;10.75;;
49472;SDS011;67434;50.956;6.918;2023-02-16T17:10:34;19.25;;;11.57;;
49472;SDS011;67434;50.956;6.918;2023-02-16T17:13:01;19.50;;;11.93;;
49472;SDS011;67434;50.956;6.918;2023-02-16T17:17:52;18.85;;;9.25;;
49472;SDS011;67434;50.956;6.918;2023-02-16T17:20:18;19.35;;;8.68;;
49472;SDS011;67434;50.956;6.918;2023-02-16T17:22:44;13.50;;;7.38;;
49472;SDS011;67434;50.956;6.918;2023-02-16T17:25:10;14.05;;;8.52;;
49472;SDS011;67434;50.956;6.918;2023-02-16T17:27:38;16.40;;;7.85;;
49472;SDS011;67434;50.956;6.918;2023-02-16T17:30:03;12.63;;;8.15;;
49472;SDS011;67434;50.956;6.918;2023-02-16T17:32:29;13.98;;;8.07;;
49472;SDS011;67434;50.956;6.918;2023-02-16T17:34:55;15.50;;;7.72;;
49472;SDS011;67434;50.956;6.918;2023-02-16T17:37:21;15.85;;;7.72;;